Time;durP1;ratioP1;P1;durP2;ratioP2;P2;SDS_P1;SDS_P2;PMS_P1;PMS_P2;Temp;Humidity;BMP_temperature;BMP_pressure;BME280_temperature;BME280_humidity;BME280_pressure;Samples;Min_cycle;Max_cycle;Signal;HPM_P1;HPM_P2
2021/06/15 00:00:21;;;;;;;6.10;2.67;;;24.10;59.20;;;;;;5003129;28;20040;-60
2021/06/15 00:02:47;;;;;;;6.07;3.33;;;24.10;59.20;;;;;;5003538;28;20414;-60
2021/06/15 00:05:12;;;;;;;7.40;3.28;;;24.10;59.30;;;;;;5004175;28;20038;-60
2021/06/15 00:07:38;;;;;;;7.18;3.38;;;24.10;59.50;;;;;;5004607;28;20033;-60
2021/06/15 00:10:06;;;;;;;5.13;3.25;;;24.00;59.50;;;;;;5004039;28;20030;-60
2021/06/15 00:12:32;;;;;;;5.78;3.38;;;24.00;59.70;;;;;;5004399;28;20034;-60
2021/06/15 00:14:57;;;;;;;4.05;2.90;;;24.00;59.80;;;;;;4986739;28;20037;-60
2021/06/15 00:17:23;;;;;;;4.95;3.10;;;24.00;59.80;;;;;;5002826;28;20045;-60
2021/06/15 00:19:48;;;;;;;5.00;2.95;;;24.00;59.80;;;;;;5002898;28;20041;-60
2021/06/15 00:22:14;;;;;;;6.35;3.00;;;23.90;59.90;;;;;;4999410;28;20060;-60
2021/06/15 00:24:39;;;;;;;5.53;2.67;;;23.90;60.00;;;;;;4985867;28;20505;-60
2021/06/15 00:27:05;;;;;;;7.30;2.90;;;23.80;60.00;;;;;;5001663;28;20501;-60
2021/06/15 00:29:30;;;;;;;3.67;2.92;;;23.80;60.10;;;;;;4984742;28;20033;-60
2021/06/15 00:31:56;;;;;;;5.78;3.03;;;23.80;60.20;;;;;;5002980;28;20038;-60
2021/06/15 00:34:21;;;;;;;4.30;3.00;;;23.80;60.30;;;;;;5002977;28;20065;-59
2021/06/15 00:36:47;;;;;;;6.80;2.80;;;23.70;60.30;;;;;;5003611;28;20492;-60
2021/06/15 00:39:12;;;;;;;5.25;2.88;;;23.70;60.40;;;;;;5003751;28;20040;-60
2021/06/15 00:41:38;;;;;;;3.63;2.70;;;23.70;60.60;;;;;;5004340;28;20045;-60
2021/06/15 00:44:06;;;;;;;4.45;2.90;;;23.60;61.00;;;;;;5002825;28;20056;-60
2021/06/15 00:46:32;;;;;;;4.68;3.03;;;23.60;60.70;;;;;;5001382;28;20037;-60
2021/06/15 00:48:57;;;;;;;5.38;2.70;;;23.50;60.80;;;;;;5007322;28;20042;-60
2021/06/15 00:51:23;;;;;;;3.85;2.83;;;23.50;60.90;;;;;;5005402;28;20029;-60
2021/06/15 00:53:48;;;;;;;5.45;2.70;;;23.50;60.90;;;;;;4989062;28;20463;-60
2021/06/15 00:56:14;;;;;;;4.82;2.30;;;23.50;61.10;;;;;;5006691;28;20485;-60
2021/06/15 00:58:39;;;;;;;4.90;2.42;;;23.40;61.10;;;;;;5005904;28;20107;-60
2021/06/15 01:01:07;;;;;;;5.05;2.50;;;23.40;61.20;;;;;;5007634;28;20025;-60
2021/06/15 01:03:32;;;;;;;3.50;2.13;;;23.40;61.30;;;;;;5005992;28;20056;-60
2021/06/15 01:05:58;;;;;;;3.95;2.40;;;23.40;61.40;;;;;;5005340;28;20493;-60
2021/06/15 01:08:36;;;;;;;3.17;2.28;;;23.40;61.60;;;;;;4990241;28;20033;-60
2021/06/15 01:11:23;;;;;;;6.00;2.47;;;23.30;61.60;;;;;;4989519;28;20433;-60
2021/06/15 01:14:10;;;;;;;4.05;2.42;;;23.30;61.90;;;;;;5020999;28;20026;-60
2021/06/15 01:16:37;;;;;;;3.20;2.10;;;23.20;61.90;;;;;;4989003;28;20036;-59
2021/06/15 01:19:29;;;;;;;4.63;2.53;;;23.20;62.00;;;;;;4973556;28;20448;-59
2021/06/15 01:22:22;;;;;;;5.80;2.60;;;23.10;62.10;;;;;;4990591;28;20033;-60
2021/06/15 01:25:08;;;;;;;4.35;2.47;;;23.10;62.30;;;;;;5005604;28;20041;-60
2021/06/15 01:27:42;;;;;;;3.45;2.30;;;23.10;62.40;;;;;;5005808;28;20433;-59
2021/06/15 01:30:12;;;;;;;6.97;2.40;;;23.10;62.60;;;;;;4989987;28;20462;-60
2021/06/15 01:32:37;;;;;;;2.65;2.35;;;23.10;62.70;;;;;;5005444;28;20232;-60
2021/06/15 01:35:06;;;;;;;3.13;2.20;;;23.00;62.80;;;;;;5006679;28;20046;-60
2021/06/15 01:37:40;;;;;;;4.25;1.95;;;23.00;62.70;;;;;;4989453;28;20436;-60
2021/06/15 01:40:12;;;;;;;4.50;2.40;;;23.00;62.90;;;;;;4988430;28;20114;-60
2021/06/15 01:42:51;;;;;;;7.60;2.22;;;22.90;62.90;;;;;;5005613;28;20026;-60
2021/06/15 01:45:29;;;;;;;4.40;2.13;;;22.90;63.00;;;;;;5005174;28;20026;-60
2021/06/15 01:48:10;;;;;;;4.53;2.42;;;22.90;63.10;;;;;;4988156;28;20117;-59
2021/06/15 01:50:37;;;;;;;6.63;2.33;;;22.80;63.10;;;;;;5007263;28;20029;-60
2021/06/15 01:53:07;;;;;;;7.15;2.30;;;22.80;63.20;;;;;;5005640;28;20030;-60
2021/06/15 01:55:33;;;;;;;2.50;2.28;;;22.80;63.30;;;;;;4989728;28;20025;-59
2021/06/15 01:57:59;;;;;;;4.88;2.67;;;22.70;63.50;;;;;;4969403;28;20085;-60
2021/06/15 02:00:24;;;;;;;4.47;3.00;;;22.70;63.70;;;;;;4980161;28;20125;-60
2021/06/15 02:02:50;;;;;;;3.80;2.88;;;22.70;63.90;;;;;;5000219;28;20033;-60
2021/06/15 02:05:17;;;;;;;5.38;2.90;;;22.60;63.90;;;;;;5001482;28;20064;-60
2021/06/15 02:07:43;;;;;;;6.95;3.25;;;22.60;64.00;;;;;;4984631;28;20021;-59
2021/06/15 02:10:14;;;;;;;4.53;3.17;;;22.60;64.10;;;;;;4986694;28;20107;-59
2021/06/15 02:12:41;;;;;;;8.13;3.42;;;22.50;64.10;;;;;;5000985;28;20033;-59
2021/06/15 02:15:08;;;;;;;4.20;2.90;;;22.50;64.20;;;;;;4987094;28;20411;-60
2021/06/15 02:17:34;;;;;;;4.68;3.45;;;22.50;64.20;;;;;;5000286;28;20022;-59
2021/06/15 02:19:59;;;;;;;9.18;3.30;;;22.50;64.30;;;;;;4984384;28;20064;-60
2021/06/15 02:22:25;;;;;;;5.20;3.08;;;22.40;64.40;;;;;;5002121;28;20029;-59
2021/06/15 02:24:53;;;;;;;3.88;2.80;;;22.40;64.50;;;;;;4986324;28;20037;-60
2021/06/15 02:27:19;;;;;;;3.20;2.78;;;22.40;64.60;;;;;;4987993;28;20033;-60
2021/06/15 02:29:45;;;;;;;6.07;2.33;;;22.30;64.60;;;;;;5003618;28;20037;-60
2021/06/15 02:32:11;;;;;;;6.72;3.15;;;22.30;64.60;;;;;;4988051;28;20047;-59
2021/06/15 02:34:41;;;;;;;4.25;2.85;;;22.30;64.70;;;;;;5005712;28;20105;-60
2021/06/15 02:37:07;;;;;;;3.35;2.67;;;22.30;64.90;;;;;;4989086;28;20029;-60
2021/06/15 02:39:33;;;;;;;4.05;2.53;;;22.20;64.80;;;;;;5004524;28;20474;-60
2021/06/15 02:41:59;;;;;;;3.90;2.70;;;22.20;65.00;;;;;;5005339;28;20153;-59
2021/06/15 02:44:28;;;;;;;3.72;2.35;;;22.20;65.00;;;;;;4988439;28;20034;-59
2021/06/15 02:46:55;;;;;;;4.13;2.35;;;22.20;65.00;;;;;;4988042;28;20088;-59
2021/06/15 02:49:23;;;;;;;3.72;2.55;;;22.10;65.10;;;;;;4987845;28;20536;-60
2021/06/15 02:52:13;;;;;;;2.60;2.13;;;22.10;65.20;;;;;;4988379;28;20071;-60
2021/06/15 02:54:54;;;;;;;3.90;2.45;;;22.10;66.00;;;;;;5004657;28;20026;-60
2021/06/15 02:57:20;;;;;;;3.42;2.70;;;22.10;65.40;;;;;;4988608;28;20042;-59
2021/06/15 02:59:45;;;;;;;3.83;2.60;;;22.00;65.50;;;;;;5003217;28;20044;-60
2021/06/15 03:02:11;;;;;;;3.90;2.28;;;22.00;65.50;;;;;;5005347;28;20026;-60
2021/06/15 03:04:36;;;;;;;3.60;2.45;;;22.00;65.60;;;;;;5004637;28;20065;-59
2021/06/15 03:07:02;;;;;;;5.15;2.70;;;22.00;65.60;;;;;;4988141;28;20030;-59
2021/06/15 03:09:28;;;;;;;3.30;2.72;;;22.00;65.70;;;;;;5006084;28;20088;-59
2021/06/15 03:12:06;;;;;;;4.22;2.15;;;21.90;65.70;;;;;;5003474;28;20041;-60
2021/06/15 03:14:32;;;;;;;3.50;2.17;;;21.90;65.80;;;;;;5002065;28;20105;-60
2021/06/15 03:17:00;;;;;;;4.85;2.38;;;21.90;66.00;;;;;;5003247;28;20128;-60
2021/06/15 03:20:05;;;;;;;4.68;2.35;;;21.90;66.10;;;;;;4986928;28;20041;-60
2021/06/15 03:22:57;;;;;;;4.43;2.75;;;21.80;66.10;;;;;;5002056;28;20061;-60
2021/06/15 03:25:26;;;;;;;7.07;2.53;;;21.80;66.20;;;;;;5035255;28;20038;-60
2021/06/15 03:27:54;;;;;;;2.65;1.90;;;21.80;66.30;;;;;;5001426;28;20037;-60
2021/06/15 03:30:20;;;;;;;3.10;2.00;;;21.80;66.40;;;;;;4987331;28;20041;-60
2021/06/15 03:32:51;;;;;;;3.10;2.25;;;21.80;66.50;;;;;;5002047;28;20050;-60
2021/06/15 03:35:17;;;;;;;2.47;2.05;;;21.80;66.60;;;;;;5002403;28;20037;-59
2021/06/15 03:37:52;;;;;;;3.35;2.45;;;21.70;66.50;;;;;;4986558;28;20037;-60
2021/06/15 03:40:19;;;;;;;5.53;2.70;;;21.70;66.70;;;;;;5018641;28;20037;-59
2021/06/15 03:42:44;;;;;;;5.22;2.97;;;21.70;66.80;;;;;;5001035;28;20071;-59
2021/06/15 03:45:10;;;;;;;6.80;2.53;;;21.60;66.80;;;;;;5000627;28;20421;-60
2021/06/15 03:47:37;;;;;;;5.38;2.70;;;21.60;66.90;;;;;;5003506;28;20046;-59
2021/06/15 03:50:03;;;;;;;6.30;3.08;;;21.60;67.00;;;;;;4986053;28;20367;-59
2021/06/15 03:52:32;;;;;;;3.90;2.78;;;21.60;67.00;;;;;;5000865;28;21349;-59
2021/06/15 03:54:58;;;;;;;4.68;2.88;;;21.60;67.00;;;;;;4985917;28;20148;-60
2021/06/15 03:57:26;;;;;;;4.45;2.88;;;21.50;67.10;;;;;;5002768;28;20557;-60
2021/06/15 03:59:53;;;;;;;5.68;2.67;;;21.50;67.20;;;;;;4985637;28;20775;-59
2021/06/15 04:02:19;;;;;;;5.82;2.58;;;21.60;67.20;;;;;;4987711;28;20026;-59
2021/06/15 04:04:45;;;;;;;2.47;2.25;;;21.50;67.30;;;;;;5000523;28;20060;-60
2021/06/15 04:07:14;;;;;;;3.35;2.50;;;21.50;67.40;;;;;;4987036;28;20026;-60
2021/06/15 04:09:40;;;;;;;2.72;2.10;;;21.50;67.50;;;;;;4987017;28;20029;-59
2021/06/15 04:12:06;;;;;;;10.23;3.00;;;21.50;67.50;;;;;;4986706;28;20091;-60
2021/06/15 04:14:32;;;;;;;44.60;5.07;;;21.40;67.50;;;;;;4986709;28;20068;-59
2021/06/15 04:16:58;;;;;;;46.90;5.88;;;21.40;68.20;;;;;;5002310;28;20057;-60
2021/06/15 04:19:26;;;;;;;55.92;6.45;;;21.40;67.60;;;;;;4987498;28;20057;-60
2021/06/15 04:21:53;;;;;;;43.92;5.90;;;21.40;67.70;;;;;;4985893;28;20038;-59
2021/06/15 04:24:22;;;;;;;54.75;6.35;;;21.40;67.70;;;;;;5002127;28;20038;-59
2021/06/15 04:26:48;;;;;;;51.20;6.13;;;21.30;67.70;;;;;;5002920;28;20044;-60
2021/06/15 04:29:15;;;;;;;42.60;5.03;;;21.30;67.90;;;;;;5000829;28;20045;-59
2021/06/15 04:31:40;;;;;;;35.70;5.35;;;21.30;68.50;;;;;;5002690;28;20025;-60
2021/06/15 04:34:06;;;;;;;38.58;4.68;;;21.20;68.70;;;;;;5003375;28;20406;-59
2021/06/15 04:36:31;;;;;;;70.65;7.20;;;21.30;69.10;;;;;;4986313;28;20030;-60
2021/06/15 04:39:08;;;;;;;82.80;8.13;;;21.20;69.20;;;;;;4986710;28;20026;-59
2021/06/15 04:41:41;;;;;;;96.30;8.23;;;21.20;69.50;;;;;;5001874;28;20546;-60
2021/06/15 04:44:11;;;;;;;77.40;7.90;;;21.10;69.70;;;;;;5003686;28;20026;-60
2021/06/15 04:46:43;;;;;;;75.40;8.00;;;21.10;70.10;;;;;;4986468;28;20041;-60
2021/06/15 04:49:28;;;;;;;64.45;6.65;;;21.10;70.40;;;;;;4987215;28;20030;-60
2021/06/15 04:51:54;;;;;;;52.60;5.45;;;21.00;70.60;;;;;;4986617;28;20037;-59
2021/06/15 04:54:20;;;;;;;109.35;8.20;;;21.00;70.90;;;;;;4969791;28;20437;-59
2021/06/15 04:56:46;;;;;;;147.75;11.63;;;20.90;71.00;;;;;;5004310;28;20073;-59
2021/06/15 04:59:11;;;;;;;109.55;11.07;;;20.90;71.30;;;;;;4986917;28;20057;-60
2021/06/15 05:01:37;;;;;;;274.77;17.52;;;20.80;71.30;;;;;;5002597;28;20557;-60
2021/06/15 05:04:04;;;;;;;166.13;13.55;;;20.80;71.50;;;;;;5003315;28;20393;-59
2021/06/15 05:06:29;;;;;;;74.45;7.47;;;20.80;71.70;;;;;;4985941;28;20060;-60
2021/06/15 05:08:58;;;;;;;103.13;8.82;;;20.80;71.90;;;;;;5004879;28;20478;-60
2021/06/15 05:11:23;;;;;;;107.60;9.02;;;20.80;72.00;;;;;;4985046;28;20022;-60
2021/06/15 05:13:49;;;;;;;64.90;7.35;;;20.70;72.00;;;;;;5035800;28;20033;-59
2021/06/15 05:16:15;;;;;;;61.58;7.05;;;20.70;72.20;;;;;;4986340;28;20124;-59
2021/06/15 05:18:40;;;;;;;49.55;6.03;;;20.70;72.30;;;;;;5002444;28;20038;-59
2021/06/15 05:21:22;;;;;;;46.25;5.68;;;20.70;72.30;;;;;;5001220;28;20053;-60
2021/06/15 05:24:28;;;;;;;43.78;5.63;;;20.70;72.40;;;;;;4985039;28;21143;-60
2021/06/15 05:26:54;;;;;;;30.98;4.75;;;20.70;72.50;;;;;;5018457;28;20395;-60
2021/06/15 05:29:19;;;;;;;31.60;5.35;;;20.70;72.40;;;;;;5001523;28;20038;-60
2021/06/15 05:31:45;;;;;;;24.88;4.82;;;20.70;72.40;;;;;;5002929;28;20125;-59
2021/06/15 05:34:10;;;;;;;19.70;4.50;;;20.70;72.30;;;;;;5004357;28;20057;-59
2021/06/15 05:36:36;;;;;;;25.92;4.47;;;20.70;72.30;;;;;;5007110;28;20124;-60
2021/06/15 05:39:02;;;;;;;27.10;4.40;;;20.70;72.30;;;;;;5001430;28;20038;-60
2021/06/15 05:41:28;;;;;;;24.70;3.78;;;20.70;72.50;;;;;;5004887;28;20057;-60
2021/06/15 05:43:53;;;;;;;21.48;5.40;;;20.70;72.30;;;;;;5007305;28;20037;-59
2021/06/15 05:46:19;;;;;;;14.68;4.03;;;20.70;72.40;;;;;;5005888;28;20034;-60
2021/06/15 05:48:44;;;;;;;25.42;4.63;;;20.80;72.60;;;;;;5006836;28;20049;-60
2021/06/15 05:51:10;;;;;;;13.80;4.60;;;20.80;72.60;;;;;;5006486;28;20045;-60
2021/06/15 05:53:35;;;;;;;14.60;3.92;;;20.70;72.70;;;;;;5021721;28;20500;-59
2021/06/15 05:56:01;;;;;;;12.18;3.53;;;20.80;72.70;;;;;;5007225;28;20041;-60
2021/06/15 05:58:27;;;;;;;15.27;4.63;;;20.80;72.70;;;;;;4989011;28;20049;-60
2021/06/15 06:00:52;;;;;;;11.38;3.50;;;20.70;72.80;;;;;;5006492;28;20108;-60
2021/06/15 06:03:32;;;;;;;10.80;3.67;;;20.70;72.80;;;;;;5005245;28;20516;-60
2021/06/15 06:08:42;;;;;;;17.48;4.28;;;20.70;72.60;;;;;;5004458;28;20036;-60
2021/06/15 06:11:08;;;;;;;15.25;3.80;;;20.70;72.60;;;;;;5003290;28;20030;-60
2021/06/15 06:13:35;;;;;;;11.23;3.50;;;20.70;72.70;;;;;;5006015;28;20030;-64
2021/06/15 06:16:08;;;;;;;13.77;4.00;;;20.80;72.70;;;;;;5006603;28;20722;-62
2021/06/15 06:18:33;;;;;;;13.90;3.97;;;20.80;72.70;;;;;;5004447;28;20048;-60
2021/06/15 06:20:58;;;;;;;9.88;3.85;;;20.80;72.70;;;;;;5004843;28;20042;-61
2021/06/15 06:23:24;;;;;;;12.32;3.70;;;20.80;72.60;;;;;;5005002;28;20482;-60
2021/06/15 06:25:50;;;;;;;19.95;4.38;;;20.80;72.60;;;;;;5005626;28;20509;-59
2021/06/15 06:28:15;;;;;;;23.98;4.22;;;20.80;72.50;;;;;;5005762;28;20478;-59
2021/06/15 06:30:41;;;;;;;18.00;3.28;;;20.80;72.50;;;;;;5004439;28;20070;-61
2021/06/15 06:33:06;;;;;;;14.30;3.55;;;20.80;72.40;;;;;;5004954;28;20030;-60
2021/06/15 06:35:32;;;;;;;11.45;3.80;;;20.80;72.40;;;;;;5004524;28;20045;-59
2021/06/15 06:37:57;;;;;;;20.80;4.38;;;20.90;72.40;;;;;;5005641;28;20056;-59
2021/06/15 06:40:23;;;;;;;16.88;3.78;;;20.90;72.40;;;;;;5005827;28;20044;-59
2021/06/15 06:42:48;;;;;;;19.90;4.90;;;20.90;72.60;;;;;;5001777;28;20046;-60
2021/06/15 06:45:14;;;;;;;22.73;3.95;;;20.90;72.60;;;;;;5004978;28;20520;-59
2021/06/15 06:47:40;;;;;;;29.80;4.60;;;21.00;72.70;;;;;;5004451;28;20030;-60
2021/06/15 06:50:06;;;;;;;32.70;5.28;;;21.00;72.80;;;;;;5005827;28;20109;-60
2021/06/15 06:52:32;;;;;;;48.25;5.65;;;20.90;72.60;;;;;;4987588;28;20055;-60
2021/06/15 06:54:57;;;;;;;35.72;5.10;;;20.90;72.50;;;;;;4998174;28;20045;-59
2021/06/15 06:57:23;;;;;;;20.00;4.95;;;21.00;72.60;;;;;;4996544;28;20401;-59
2021/06/15 06:59:48;;;;;;;39.33;5.22;;;21.00;72.50;;;;;;4997323;28;20865;-60
2021/06/15 07:02:14;;;;;;;23.45;5.13;;;21.00;72.60;;;;;;4983434;28;20034;-60
2021/06/15 07:04:39;;;;;;;28.52;4.70;;;21.00;72.30;;;;;;5004589;28;20140;-60
2021/06/15 07:07:05;;;;;;;32.63;5.32;;;21.00;72.50;;;;;;5001972;28;20042;-59
2021/06/15 07:09:30;;;;;;;55.15;7.30;;;21.00;72.10;;;;;;5004374;28;20057;-61
2021/06/15 07:11:56;;;;;;;56.53;7.18;;;21.10;72.30;;;;;;5003347;28;20507;-60
2021/06/15 07:14:21;;;;;;;38.10;5.85;;;21.10;72.60;;;;;;5005510;28;20040;-59
2021/06/15 07:16:47;;;;;;;51.38;6.00;;;21.10;72.50;;;;;;4996628;28;20025;-59
2021/06/15 07:19:12;;;;;;;51.10;6.78;;;21.10;72.70;;;;;;4983344;28;20413;-60
2021/06/15 07:21:38;;;;;;;49.55;8.35;;;21.10;73.00;;;;;;5000656;28;20069;-60
2021/06/15 07:24:04;;;;;;;49.50;6.07;;;21.10;73.00;;;;;;5003101;28;20385;-60
2021/06/15 07:26:29;;;;;;;44.63;7.20;;;21.10;72.90;;;;;;4998745;28;20044;-59
2021/06/15 07:28:55;;;;;;;41.30;6.15;;;21.20;72.90;;;;;;4995930;28;20034;-60
2021/06/15 07:31:21;;;;;;;27.98;5.75;;;21.20;72.90;;;;;;4996602;28;20037;-60
2021/06/15 07:50:53;;;;;;;32.58;5.32;;;21.40;72.50;;;;;;5005421;28;20105;-58
2021/06/15 07:53:19;;;;;;;31.15;5.95;;;21.30;72.40;;;;;;4982646;28;20129;-58
2021/06/15 07:55:44;;;;;;;36.15;5.97;;;21.40;72.50;;;;;;5002743;28;20057;-58
2021/06/15 07:58:11;;;;;;;48.67;7.13;;;21.40;72.30;;;;;;5001354;28;20347;-59
2021/06/15 08:00:38;;;;;;;31.70;5.28;;;21.50;72.30;;;;;;4992764;28;20040;-59
2021/06/15 08:03:04;;;;;;;107.75;10.52;;;21.50;72.20;;;;;;5002156;28;20108;-59
2021/06/15 08:05:29;;;;;;;36.80;5.93;;;21.50;72.20;;;;;;4999583;28;20028;-60
2021/06/15 08:07:55;;;;;;;40.25;5.97;;;21.50;72.10;;;;;;5001342;28;20036;-61
2021/06/15 08:10:21;;;;;;;42.97;5.47;;;21.60;71.80;;;;;;5000014;28;20021;-60
2021/06/15 08:12:47;;;;;;;33.38;5.53;;;21.60;71.80;;;;;;4997364;28;20297;-61
2021/06/15 08:15:12;;;;;;;31.88;5.88;;;21.60;71.60;;;;;;4984071;28;20496;-61
2021/06/15 08:17:38;;;;;;;42.15;6.43;;;21.60;71.30;;;;;;4997299;28;20118;-60
2021/06/15 08:20:04;;;;;;;28.63;5.35;;;21.60;71.20;;;;;;5002079;28;20042;-60
2021/06/15 08:22:30;;;;;;;27.70;5.43;;;21.70;71.00;;;;;;5002269;28;20076;-59
2021/06/15 08:24:56;;;;;;;30.58;5.82;;;21.70;70.90;;;;;;4999598;28;20030;-59
2021/06/15 08:27:22;;;;;;;23.65;5.47;;;21.70;70.70;;;;;;4999501;28;20092;-60
2021/06/15 08:29:48;;;;;;;26.17;5.72;;;21.70;70.90;;;;;;4992659;28;20045;-60
2021/06/15 08:32:13;;;;;;;25.15;6.10;;;21.70;71.00;;;;;;4999963;28;20038;-60
2021/06/15 08:34:39;;;;;;;28.65;5.55;;;21.80;70.80;;;;;;5002550;28;20038;-60
2021/06/15 08:37:04;;;;;;;19.83;4.20;;;21.90;70.70;;;;;;4997854;28;20077;-60
2021/06/15 08:39:30;;;;;;;20.85;4.30;;;21.90;70.80;;;;;;5000322;28;20037;-60
2021/06/15 08:41:55;;;;;;;25.92;5.82;;;21.90;70.80;;;;;;5002477;28;20103;-60
2021/06/15 08:44:21;;;;;;;18.23;4.45;;;22.00;70.90;;;;;;4999003;28;20076;-60
2021/06/15 08:46:47;;;;;;;27.92;4.07;;;22.00;70.90;;;;;;4999903;28;20120;-60
2021/06/15 08:49:12;;;;;;;23.70;4.63;;;22.00;70.80;;;;;;5000703;28;20114;-60
2021/06/15 08:51:39;;;;;;;25.92;5.05;;;22.00;70.70;;;;;;4991822;28;21248;-60
2021/06/15 08:54:07;;;;;;;11.95;3.95;;;22.00;70.60;;;;;;5014832;28;20092;-60
2021/06/15 08:56:33;;;;;;;18.10;3.95;;;22.10;71.20;;;;;;5002194;28;20030;-60
2021/06/15 08:59:21;;;;;;;14.73;3.83;;;22.10;70.40;;;;;;4993585;28;20034;-60
2021/06/15 09:01:49;;;;;;;34.28;4.75;;;22.10;70.10;;;;;;4998908;28;20474;-60
2021/06/15 09:04:15;;;;;;;16.92;4.65;;;22.20;70.10;;;;;;4968085;28;20140;-60
2021/06/15 09:06:40;;;;;;;19.20;4.00;;;22.20;70.00;;;;;;4983688;28;20045;-60
2021/06/15 09:09:06;;;;;;;14.35;3.85;;;22.20;69.90;;;;;;5001326;28;20029;-60
2021/06/15 09:11:47;;;;;;;18.17;5.03;;;22.30;69.80;;;;;;4984442;28;20514;-59
2021/06/15 09:14:13;;;;;;;28.23;4.88;;;22.60;69.90;;;;;;4997928;28;20049;-59
2021/06/15 09:16:46;;;;;;;12.93;3.58;;;22.40;69.80;;;;;;4982697;28;20121;-60
2021/06/15 09:19:22;;;;;;;28.30;5.07;;;22.50;69.30;;;;;;4982738;28;20537;-60
2021/06/15 09:21:48;;;;;;;40.30;5.18;;;22.50;69.00;;;;;;5000340;28;20041;-61
2021/06/15 09:24:26;;;;;;;18.35;4.20;;;22.50;69.00;;;;;;4986196;28;20030;-60
2021/06/15 09:29:47;;;;;;;19.08;4.55;;;22.60;68.80;;;;;;5001973;28;20041;-61
2021/06/15 09:32:23;;;;;;;22.40;3.95;;;22.60;68.80;;;;;;4990596;28;20033;-60
2021/06/15 09:35:10;;;;;;;15.63;4.63;;;22.60;68.50;;;;;;4986815;28;20033;-60
2021/06/15 09:37:38;;;;;;;15.65;3.75;;;22.70;68.00;;;;;;5000075;28;20022;-60
2021/06/15 09:40:12;;;;;;;29.30;5.25;;;22.80;67.90;;;;;;4987002;28;20022;-60
2021/06/15 09:42:57;;;;;;;27.23;4.22;;;22.80;67.50;;;;;;5019629;28;20022;-61
2021/06/15 09:45:24;;;;;;;23.58;4.15;;;22.80;67.20;;;;;;5003240;28;20518;-60
2021/06/15 09:47:50;;;;;;;22.38;5.03;;;22.90;67.30;;;;;;4998232;28;20533;-61
2021/06/15 09:50:17;;;;;;;18.77;4.13;;;22.90;67.10;;;;;;4970979;28;20036;-60
2021/06/15 09:52:43;;;;;;;39.55;4.80;;;23.00;66.60;;;;;;4983544;28;20065;-60
2021/06/15 09:55:09;;;;;;;36.55;4.63;;;23.00;66.10;;;;;;5005008;28;20108;-60
2021/06/15 09:57:40;;;;;;;33.88;5.47;;;23.10;66.30;;;;;;4987280;28;20057;-61
2021/06/15 10:00:16;;;;;;;25.73;4.68;;;23.10;66.00;;;;;;5004931;28;20113;-60
2021/06/15 10:02:48;;;;;;;43.55;5.22;;;23.10;65.60;;;;;;5004388;28;20024;-60
2021/06/15 10:05:33;;;;;;;51.38;5.95;;;23.20;65.40;;;;;;5004042;28;20026;-60
2021/06/15 10:08:02;;;;;;;42.67;4.67;;;23.30;64.90;;;;;;5002109;28;20496;-60
2021/06/15 10:10:35;;;;;;;38.05;5.25;;;23.30;64.50;;;;;;4985964;28;20307;-60
2021/06/15 10:13:01;;;;;;;30.77;5.53;;;23.30;64.10;;;;;;5003876;28;20437;-60
2021/06/15 10:15:27;;;;;;;47.17;5.30;;;23.40;64.00;;;;;;5005577;28;20034;-60
2021/06/15 10:17:53;;;;;;;26.55;5.30;;;23.40;63.90;;;;;;4982801;28;20041;-60
2021/06/15 10:20:20;;;;;;;37.28;6.22;;;23.50;63.90;;;;;;5003019;28;20581;-60
2021/06/15 10:22:46;;;;;;;21.35;4.18;;;23.50;63.20;;;;;;5000351;28;20060;-60
2021/06/15 10:25:12;;;;;;;30.15;4.72;;;23.60;63.00;;;;;;4981500;28;20026;-60
2021/06/15 10:27:39;;;;;;;29.27;4.95;;;23.70;62.90;;;;;;5004057;28;20063;-60
2021/06/15 10:30:05;;;;;;;24.58;4.18;;;23.70;62.90;;;;;;5004982;28;20022;-61
2021/06/15 10:32:31;;;;;;;31.63;4.60;;;23.90;62.90;;;;;;5005980;28;20030;-60
2021/06/15 10:35:03;;;;;;;31.38;4.70;;;23.80;62.40;;;;;;5004845;28;20022;-61
2021/06/15 10:37:32;;;;;;;27.63;4.13;;;23.90;62.40;;;;;;5003361;28;20029;-60
2021/06/15 10:40:05;;;;;;;21.30;3.25;;;24.00;62.30;;;;;;5004170;28;20049;-60
2021/06/15 10:42:30;;;;;;;21.58;3.50;;;24.00;60.80;;;;;;4989020;28;20473;-60
2021/06/15 10:45:20;;;;;;;28.63;4.25;;;24.10;60.00;;;;;;5006291;28;20222;-60
2021/06/15 10:48:04;;;;;;;29.88;3.58;;;24.20;59.50;;;;;;5005260;28;20053;-60
2021/06/15 10:50:48;;;;;;;32.50;3.92;;;24.40;59.20;;;;;;5005157;28;20088;-61
2021/06/15 10:53:15;;;;;;;22.83;4.43;;;24.40;58.50;;;;;;5019432;28;20025;-60
2021/06/15 10:55:48;;;;;;;34.75;5.03;;;24.50;57.40;;;;;;5005721;28;20029;-60
2021/06/15 10:58:14;;;;;;;29.25;4.15;;;24.60;57.30;;;;;;5004697;28;20485;-60
2021/06/15 11:00:52;;;;;;;24.13;3.55;;;24.80;56.80;;;;;;4986677;28;20045;-60
2021/06/15 11:03:19;;;;;;;24.08;3.67;;;24.90;56.00;;;;;;5019611;28;20034;-60
2021/06/15 11:05:46;;;;;;;29.63;4.05;;;24.90;55.80;;;;;;5001998;28;20026;-61
2021/06/15 11:08:27;;;;;;;35.25;4.63;;;25.00;55.60;;;;;;5004577;28;20033;-61
2021/06/15 11:11:12;;;;;;;29.25;4.45;;;25.10;55.10;;;;;;5004009;28;20029;-60
2021/06/15 11:13:54;;;;;;;17.77;3.00;;;25.20;54.80;;;;;;5005578;28;20033;-60
2021/06/15 11:16:32;;;;;;;27.25;3.92;;;25.30;54.40;;;;;;4986652;28;20058;-64
2021/06/15 11:19:20;;;;;;;36.33;4.43;;;25.40;53.90;;;;;;5019673;28;20058;-60
2021/06/15 11:22:01;;;;;;;23.75;3.72;;;25.60;53.80;;;;;;5003786;28;20553;-60
2021/06/15 11:24:35;;;;;;;39.75;4.53;;;25.70;53.20;;;;;;5005295;28;20033;-60
2021/06/15 11:27:08;;;;;;;37.38;4.53;;;25.80;52.90;;;;;;4985244;28;20036;-60
2021/06/15 11:29:38;;;;;;;31.67;4.28;;;25.90;52.80;;;;;;5001877;28;20046;-60
2021/06/15 11:32:16;;;;;;;28.33;4.75;;;26.00;52.70;;;;;;4966536;28;20062;-61
2021/06/15 11:34:42;;;;;;;37.90;4.72;;;26.10;52.50;;;;;;5003730;28;20026;-61
2021/06/15 11:37:19;;;;;;;25.73;4.28;;;26.20;52.00;;;;;;5002793;28;20037;-60
2021/06/15 11:39:44;;;;;;;35.78;4.30;;;26.20;51.50;;;;;;5002294;28;20394;-60
2021/06/15 11:42:19;;;;;;;42.22;5.85;;;26.30;51.10;;;;;;5003027;28;20056;-60
2021/06/15 11:45:01;;;;;;;50.80;5.93;;;26.40;51.20;;;;;;5003002;28;20153;-61
2021/06/15 11:47:29;;;;;;;44.05;4.72;;;26.50;51.10;;;;;;5001483;28;20133;-60
2021/06/15 11:50:20;;;;;;;33.55;3.95;;;26.60;50.60;;;;;;5004840;28;20022;-61
2021/06/15 11:52:56;;;;;;;41.80;5.20;;;26.70;49.80;;;;;;5002664;28;20026;-60
2021/06/15 11:55:39;;;;;;;29.65;3.40;;;26.80;50.20;;;;;;4997761;28;20779;-60
2021/06/15 11:58:05;;;;;;;24.75;3.95;;;26.90;49.50;;;;;;4999763;28;20022;-58
2021/06/15 12:00:32;;;;;;;19.52;2.88;;;27.00;49.20;;;;;;5004135;28;20022;-62
2021/06/15 12:03:06;;;;;;;15.93;3.15;;;27.00;48.30;;;;;;4999605;28;20049;-61
2021/06/15 12:05:31;;;;;;;30.77;3.83;;;27.10;48.50;;;;;;5002807;28;20110;-60
2021/06/15 12:07:57;;;;;;;38.03;5.25;;;27.20;48.10;;;;;;5003299;28;20144;-60
2021/06/15 12:10:23;;;;;;;35.85;4.20;;;27.40;48.30;;;;;;4985468;28;20038;-61
2021/06/15 12:12:53;;;;;;;25.67;4.03;;;27.40;47.60;;;;;;5004233;28;20377;-61
2021/06/15 12:15:32;;;;;;;25.42;3.70;;;27.50;47.20;;;;;;5004544;28;20501;-61
2021/06/15 12:17:57;;;;;;;17.08;2.92;;;27.60;46.60;;;;;;5004041;28;20042;-58
2021/06/15 12:20:35;;;;;;;13.60;3.05;;;27.70;46.30;;;;;;5003665;28;20073;-61
2021/06/15 12:23:27;;;;;;;24.00;3.17;;;27.80;46.20;;;;;;4983591;28;20050;-58
2021/06/15 12:25:53;;;;;;;40.13;3.45;;;27.90;46.40;;;;;;5000766;28;20026;-58
2021/06/15 12:28:20;;;;;;;23.63;3.30;;;27.90;47.00;;;;;;4983866;28;20025;-59
2021/06/15 12:30:46;;;;;;;26.92;3.58;;;28.00;47.00;;;;;;5017625;28;20121;-59
2021/06/15 12:33:12;;;;;;;41.05;4.70;;;28.10;47.30;;;;;;4999847;28;20832;-58
2021/06/15 12:35:38;;;;;;;20.38;2.42;;;28.10;47.40;;;;;;5000667;28;20041;-59
2021/06/15 12:38:10;;;;;;;22.40;3.47;;;28.20;47.10;;;;;;4999669;28;21394;-60
2021/06/15 12:40:39;;;;;;;17.48;3.10;;;28.30;47.40;;;;;;4997425;28;20045;-58
2021/06/15 12:43:05;;;;;;;46.53;4.43;;;28.30;47.50;;;;;;4991242;28;20592;-59
2021/06/15 12:45:35;;;;;;;32.55;3.75;;;28.40;47.80;;;;;;5000606;28;20044;-59
2021/06/15 12:48:01;;;;;;;39.22;4.20;;;28.50;48.00;;;;;;5016856;28;20045;-59
2021/06/15 12:50:27;;;;;;;32.00;3.95;;;28.50;47.90;;;;;;5004389;28;20135;-59
2021/06/15 12:53:02;;;;;;;26.80;4.43;;;28.60;47.90;;;;;;4997894;28;20030;-58
2021/06/15 12:55:28;;;;;;;;;;;28.70;47.90;;;;;;5003786;28;20069;-59
2021/06/15 12:57:57;;;;;;;;;;;28.90;47.60;;;;;;5005970;28;19937;-58
2021/06/15 13:00:22;;;;;;;52.15;5.00;;;28.90;47.30;;;;;;5004373;28;19925;-60
2021/06/15 13:02:48;;;;;;;29.15;4.70;;;29.10;47.50;;;;;;5000836;28;20049;-58
2021/06/15 13:05:22;;;;;;;33.25;4.20;;;29.20;47.10;;;;;;5002480;28;20034;-60
2021/06/15 13:07:58;;;;;;;34.83;4.28;;;29.30;47.20;;;;;;4972048;28;20596;-59
2021/06/15 13:10:24;;;;;;;40.05;4.07;;;29.30;46.90;;;;;;5005902;28;20493;-59
2021/06/15 13:12:52;;;;;;;42.78;9.50;;;29.40;46.50;;;;;;5004886;28;20488;-59